^^
Station Historical Data
Daily Summary for January 29, 2017 Units:  Both    English   Metric
« Previous Day
Next Day »
Daily Weekly Monthly Yearly Custom
  High: Low: Average:
Temperature: 89.8 °F /  32.1 °C 59.2 °F /  15.1 °C 72.8 °F /  22.7 °C
Dew Point: 56.8 °F /  13.8 °C 37.2 °F /  2.9 °C 49.4 °F /  9.7 °C
Humidity: 77% 26% 47%
Wind Speed: 12.1mph /  19.5km/h - 1.5mph /  2.4km/h
Wind Gust: 15.0mph /  24.1km/h - -
Wind- - WSW
Pressure: 29.81 in /  1009.4 hPa 29.62 in /  1002.9 hPa -
Precipitation: 0.00 in /  0 mm    
Historical Graphs
 
 
Tabular Data for January 29, 2017
Time Temperature Dew Point Pressure Wind Wind Speed Wind Gust Humidity Rainfall Rate (Hourly) solar Conditions
00:07 67.8 °F /  19.9 °C 54.0 °F /  12.2 °C 29.72in /  1006.3hPa Calm     61% 0.00in /  0mm 0.0 W/m2
00:13 67.5 °F /  19.7 °C 53.1 °F /  11.7 °C 29.72in /  1006.3hPa Calm   1.0mph /  1.6km/h 60% 0.00in /  0mm 0.0 W/m2
00:19 67.3 °F /  19.6 °C 52.5 °F /  11.4 °C 29.72in /  1006.3hPa Calm   1.0mph /  1.6km/h 59% 0.00in /  0mm 0.0 W/m2
00:25 67.1 °F /  19.5 °C 52.7 °F /  11.5 °C 29.71in /  1006hPa Calm   1.0mph /  1.6km/h 60% 0.00in /  0mm 0.0 W/m2
00:32 66.9 °F /  19.4 °C 52.5 °F /  11.4 °C 29.72in /  1006.3hPa Calm     60% 0.00in /  0mm 0.0 W/m2
00:38 66.7 °F /  19.3 °C 52.9 °F /  11.6 °C 29.71in /  1006hPa NNW 0.9mph /  1.4km/h 3.0mph /  4.8km/h 61% 0.00in /  0mm 0.0 W/m2
00:44 66.6 °F /  19.2 °C 50.9 °F /  10.5 °C 29.72in /  1006.3hPa Calm   2.0mph /  3.2km/h 57% 0.00in /  0mm 0.0 W/m2
00:50 66.4 °F /  19.1 °C 50.2 °F /  10.1 °C 29.71in /  1006hPa North 0.9mph /  1.4km/h 4.0mph /  6.4km/h 56% 0.00in /  0mm 0.0 W/m2
00:56 66.4 °F /  19.1 °C 49.6 °F /  9.8 °C 29.71in /  1006hPa Calm   3.0mph /  4.8km/h 55% 0.00in /  0mm 0.0 W/m2
01:02 66.4 °F /  19.1 °C 49.6 °F /  9.8 °C 29.71in /  1006hPa Calm   3.0mph /  4.8km/h 55% 0.00in /  0mm 0.0 W/m2
01:08 66.4 °F /  19.1 °C 49.3 °F /  9.6 °C 29.72in /  1006.3hPa Calm   1.0mph /  1.6km/h 54% 0.00in /  0mm 0.0 W/m2
01:14 66.4 °F /  19.1 °C 48.2 °F /  9 °C 29.72in /  1006.3hPa Calm   5.0mph /  8km/h 52% 0.00in /  0mm 0.0 W/m2
01:21 66.2 °F /  19 °C 48.0 °F /  8.9 °C 29.71in /  1006hPa NNW 0.9mph /  1.4km/h 3.0mph /  4.8km/h 52% 0.00in /  0mm 0.0 W/m2
01:27 66.0 °F /  18.9 °C 47.8 °F /  8.8 °C 29.72in /  1006.3hPa Calm   2.0mph /  3.2km/h 52% 0.00in /  0mm 0.0 W/m2
01:33 66.0 °F /  18.9 °C 48.4 °F /  9.1 °C 29.71in /  1006hPa Calm     53% 0.00in /  0mm 0.0 W/m2
01:39 65.7 °F /  18.7 °C 48.0 °F /  8.9 °C 29.71in /  1006hPa Calm     53% 0.00in /  0mm 0.0 W/m2
01:45 65.5 °F /  18.6 °C 48.4 °F /  9.1 °C 29.71in /  1006hPa Calm   1.0mph /  1.6km/h 54% 0.00in /  0mm 0.0 W/m2
01:51 65.1 °F /  18.4 °C 48.6 °F /  9.2 °C 29.71in /  1006hPa Calm   1.0mph /  1.6km/h 55% 0.00in /  0mm 0.0 W/m2
01:57 64.9 °F /  18.3 °C 47.8 °F /  8.8 °C 29.71in /  1006hPa Calm     54% 0.00in /  0mm 0.0 W/m2
02:04 64.8 °F /  18.2 °C 48.2 °F /  9 °C 29.71in /  1006hPa Calm     55% 0.00in /  0mm 0.0 W/m2
02:10 64.6 °F /  18.1 °C 48.6 °F /  9.2 °C 29.70in /  1005.6hPa Calm     56% 0.00in /  0mm 0.0 W/m2
02:16 64.2 °F /  17.9 °C 48.2 °F /  9 °C 29.70in /  1005.6hPa Calm     56% 0.00in /  0mm 0.0 W/m2
02:22 64.0 °F /  17.8 °C 48.6 °F /  9.2 °C 29.70in /  1005.6hPa Calm     57% 0.00in /  0mm 0.0 W/m2
02:28 63.9 °F /  17.7 °C 48.7 °F /  9.3 °C 29.70in /  1005.6hPa Calm     58% 0.00in /  0mm 0.0 W/m2
02:34 63.7 °F /  17.6 °C 49.5 °F /  9.7 °C 29.70in /  1005.6hPa Calm     60% 0.00in /  0mm 0.0 W/m2
02:40 63.3 °F /  17.4 °C 49.3 °F /  9.6 °C 29.70in /  1005.6hPa Calm     60% 0.00in /  0mm 0.0 W/m2
02:46 63.1 °F /  17.3 °C 49.8 °F /  9.9 °C 29.69in /  1005.3hPa Calm     62% 0.00in /  0mm 0.0 W/m2
02:53 62.8 °F /  17.1 °C 50.0 °F /  10 °C 29.68in /  1005hPa Calm     63% 0.00in /  0mm 0.0 W/m2
02:59 62.4 °F /  16.9 °C 50.0 °F /  10 °C 29.68in /  1005hPa Calm     64% 0.00in /  0mm 0.0 W/m2
03:05 62.2 °F /  16.8 °C 50.4 °F /  10.2 °C 29.68in /  1005hPa Calm     65% 0.00in /  0mm 0.0 W/m2
03:11 62.1 °F /  16.7 °C 50.5 °F /  10.3 °C 29.68in /  1005hPa Calm     66% 0.00in /  0mm 0.0 W/m2
03:17 61.9 °F /  16.6 °C 51.3 °F /  10.7 °C 29.68in /  1005hPa Calm     68% 0.00in /  0mm 0.0 W/m2
03:23 61.5 °F /  16.4 °C 50.9 °F /  10.5 °C 29.68in /  1005hPa Calm     68% 0.00in /  0mm 0.0 W/m2
03:29 61.2 °F /  16.2 °C 50.9 °F /  10.5 °C 29.68in /  1005hPa Calm   1.0mph /  1.6km/h 69% 0.00in /  0mm 0.0 W/m2
03:42 60.6 °F /  15.9 °C 51.1 °F /  10.6 °C 29.67in /  1004.6hPa Calm     71% 0.00in /  0mm 0.0 W/m2
03:48 60.4 °F /  15.8 °C 51.1 °F /  10.6 °C 29.67in /  1004.6hPa Calm     71% 0.00in /  0mm 0.0 W/m2
03:54 60.3 °F /  15.7 °C 50.0 °F /  10 °C 29.67in /  1004.6hPa Calm   1.0mph /  1.6km/h 69% 0.00in /  0mm 0.0 W/m2
04:00 60.3 °F /  15.7 °C 50.9 °F /  10.5 °C 29.67in /  1004.6hPa ENE 0.9mph /  1.4km/h 1.0mph /  1.6km/h 71% 0.00in /  0mm 0.0 W/m2
04:06 60.3 °F /  15.7 °C 50.9 °F /  10.5 °C 29.67in /  1004.6hPa Calm     71% 0.00in /  0mm 0.0 W/m2
04:12 60.1 °F /  15.6 °C 50.7 °F /  10.4 °C 29.67in /  1004.6hPa Calm   1.0mph /  1.6km/h 71% 0.00in /  0mm 0.0 W/m2
04:18 60.1 °F /  15.6 °C 51.1 °F /  10.6 °C 29.67in /  1004.6hPa Calm   3.0mph /  4.8km/h 72% 0.00in /  0mm 0.0 W/m2
04:24 60.1 °F /  15.6 °C 51.4 °F /  10.8 °C 29.67in /  1004.6hPa Calm   1.0mph /  1.6km/h 73% 0.00in /  0mm 0.0 W/m2
04:36 59.9 °F /  15.5 °C 50.9 °F /  10.5 °C 29.67in /  1004.6hPa Calm     72% 0.00in /  0mm 0.0 W/m2
04:42 59.9 °F /  15.5 °C 50.9 °F /  10.5 °C 29.67in /  1004.6hPa Calm     72% 0.00in /  0mm 0.0 W/m2
04:48 59.9 °F /  15.5 °C 50.9 °F /  10.5 °C 29.67in /  1004.6hPa Calm     72% 0.00in /  0mm 0.0 W/m2
04:54 60.1 °F /  15.6 °C 51.4 °F /  10.8 °C 29.67in /  1004.6hPa Calm     73% 0.00in /  0mm 0.0 W/m2
05:01 59.9 °F /  15.5 °C 50.9 °F /  10.5 °C 29.67in /  1004.6hPa Calm     72% 0.00in /  0mm 0.0 W/m2
05:07 59.9 °F /  15.5 °C 51.3 °F /  10.7 °C 29.68in /  1005hPa Calm     73% 0.00in /  0mm 0.0 W/m2
05:13 59.7 °F /  15.4 °C 51.4 °F /  10.8 °C 29.67in /  1004.6hPa ENE 2.0mph /  3.2km/h 2.0mph /  3.2km/h 74% 0.00in /  0mm 0.0 W/m2
05:19 59.7 °F /  15.4 °C 51.8 °F /  11 °C 29.67in /  1004.6hPa Calm   1.0mph /  1.6km/h 75% 0.00in /  0mm 0.0 W/m2
05:25 59.5 °F /  15.3 °C 51.6 °F /  10.9 °C 29.68in /  1005hPa Calm   1.0mph /  1.6km/h 75% 0.00in /  0mm 0.0 W/m2
05:31 59.5 °F /  15.3 °C 51.6 °F /  10.9 °C 29.68in /  1005hPa Calm   1.0mph /  1.6km/h 75% 0.00in /  0mm 0.0 W/m2
05:37 59.4 °F /  15.2 °C 51.4 °F /  10.8 °C 29.68in /  1005hPa Calm   1.0mph /  1.6km/h 75% 0.00in /  0mm 0.0 W/m2
05:43 59.4 °F /  15.2 °C 51.4 °F /  10.8 °C 29.68in /  1005hPa Calm   2.0mph /  3.2km/h 75% 0.00in /  0mm 0.0 W/m2
05:49 59.4 °F /  15.2 °C 51.4 °F /  10.8 °C 29.68in /  1005hPa Calm   2.0mph /  3.2km/h 75% 0.00in /  0mm 0.0 W/m2
05:55 59.4 °F /  15.2 °C 51.1 °F /  10.6 °C 29.68in /  1005hPa Calm   3.0mph /  4.8km/h 74% 0.00in /  0mm 0.0 W/m2
06:01 59.4 °F /  15.2 °C 51.1 °F /  10.6 °C 29.68in /  1005hPa Calm   1.0mph /  1.6km/h 74% 0.00in /  0mm 0.0 W/m2
06:07 59.4 °F /  15.2 °C 51.8 °F /  11 °C 29.68in /  1005hPa Calm   1.0mph /  1.6km/h 76% 0.00in /  0mm 0.0 W/m2
06:13 59.2 °F /  15.1 °C 50.9 °F /  10.5 °C 29.69in /  1005.3hPa Calm   2.0mph /  3.2km/h 74% 0.00in /  0mm 0.0 W/m2
06:19 59.2 °F /  15.1 °C 50.9 °F /  10.5 °C 29.69in /  1005.3hPa Calm   1.0mph /  1.6km/h 74% 0.00in /  0mm 0.0 W/m2
06:25 59.2 °F /  15.1 °C 51.3 °F /  10.7 °C 29.69in /  1005.3hPa Calm     75% 0.00in /  0mm 0.0 W/m2
06:31 59.2 °F /  15.1 °C 50.5 °F /  10.3 °C 29.70in /  1005.6hPa Calm     73% 0.00in /  0mm 0.0 W/m2
06:37 59.2 °F /  15.1 °C 50.5 °F /  10.3 °C 29.70in /  1005.6hPa Calm   1.0mph /  1.6km/h 73% 0.00in /  0mm 0.0 W/m2
06:43 59.2 °F /  15.1 °C 50.5 °F /  10.3 °C 29.70in /  1005.6hPa Calm     73% 0.00in /  0mm 7.0 W/m2
06:49 59.2 °F /  15.1 °C 50.5 °F /  10.3 °C 29.70in /  1005.6hPa Calm     73% 0.00in /  0mm 9.0 W/m2
06:55 59.2 °F /  15.1 °C 51.3 °F /  10.7 °C 29.70in /  1005.6hPa Calm     75% 0.00in /  0mm 12.0 W/m2
07:01 59.2 °F /  15.1 °C 51.3 °F /  10.7 °C 29.70in /  1005.6hPa Calm     75% 0.00in /  0mm 16.0 W/m2
07:07 59.2 °F /  15.1 °C 50.9 °F /  10.5 °C 29.70in /  1005.6hPa Calm     74% 0.00in /  0mm 19.0 W/m2
07:13 59.2 °F /  15.1 °C 51.3 °F /  10.7 °C 29.70in /  1005.6hPa Calm     75% 0.00in /  0mm 21.0 W/m2
07:19 59.4 °F /  15.2 °C 51.8 °F /  11 °C 29.70in /  1005.6hPa Calm     76% 0.00in /  0mm 25.0 W/m2
07:25 59.5 °F /  15.3 °C 52.3 °F /  11.3 °C 29.71in /  1006hPa Calm     77% 0.00in /  0mm 26.0 W/m2
07:31 59.7 °F /  15.4 °C 52.2 °F /  11.2 °C 29.71in /  1006hPa Calm     76% 0.00in /  0mm 28.0 W/m2
07:37 60.3 °F /  15.7 °C 52.0 °F /  11.1 °C 29.71in /  1006hPa Calm   1.0mph /  1.6km/h 74% 0.00in /  0mm 32.0 W/m2
07:43 60.6 °F /  15.9 °C 52.0 °F /  11.1 °C 29.71in /  1006hPa Calm   1.0mph /  1.6km/h 73% 0.00in /  0mm 121.0 W/m2
07:49 61.2 °F /  16.2 °C 51.6 °F /  10.9 °C 29.71in /  1006hPa Calm   1.0mph /  1.6km/h 71% 0.00in /  0mm 107.0 W/m2
07:55 61.7 °F /  16.5 °C 51.8 °F /  11 °C 29.71in /  1006hPa NNW 0.9mph /  1.4km/h 1.0mph /  1.6km/h 70% 0.00in /  0mm 281.0 W/m2
08:01 62.1 °F /  16.7 °C 51.8 °F /  11 °C 29.71in /  1006hPa West 0.9mph /  1.4km/h 3.0mph /  4.8km/h 69% 0.00in /  0mm 315.0 W/m2
08:07 62.8 °F /  17.1 °C 51.3 °F /  10.7 °C 29.72in /  1006.3hPa WSW 0.9mph /  1.4km/h 2.0mph /  3.2km/h 66% 0.00in /  0mm 338.0 W/m2
08:13 63.3 °F /  17.4 °C 50.0 °F /  10 °C 29.72in /  1006.3hPa Calm   2.0mph /  3.2km/h 62% 0.00in /  0mm 366.0 W/m2
08:25 65.1 °F /  18.4 °C 50.4 °F /  10.2 °C 29.72in /  1006.3hPa North 0.9mph /  1.4km/h 2.0mph /  3.2km/h 59% 0.00in /  0mm 410.0 W/m2
08:31 66.6 °F /  19.2 °C 50.4 °F /  10.2 °C 29.72in /  1006.3hPa Calm   2.0mph /  3.2km/h 56% 0.00in /  0mm 424.0 W/m2
08:37 67.6 °F /  19.8 °C 50.9 °F /  10.5 °C 29.72in /  1006.3hPa Calm   3.0mph /  4.8km/h 55% 0.00in /  0mm 454.0 W/m2
08:43 68.4 °F /  20.2 °C 50.5 °F /  10.3 °C 29.72in /  1006.3hPa Calm   1.0mph /  1.6km/h 53% 0.00in /  0mm 482.0 W/m2
08:49 69.6 °F /  20.9 °C 50.7 °F /  10.4 °C 29.72in /  1006.3hPa NNE 0.9mph /  1.4km/h 2.0mph /  3.2km/h 51% 0.00in /  0mm 506.0 W/m2
08:55 70.5 °F /  21.4 °C 50.4 °F /  10.2 °C 29.72in /  1006.3hPa Calm   1.0mph /  1.6km/h 49% 0.00in /  0mm 529.0 W/m2
09:01 71.6 °F /  22 °C 50.9 °F /  10.5 °C 29.72in /  1006.3hPa Calm   1.0mph /  1.6km/h 48% 0.00in /  0mm 548.0 W/m2
09:07 72.7 °F /  22.6 °C 51.3 °F /  10.7 °C 29.72in /  1006.3hPa Calm   1.0mph /  1.6km/h 47% 0.00in /  0mm 573.0 W/m2
09:13 73.8 °F /  23.2 °C 51.6 °F /  10.9 °C 29.72in /  1006.3hPa Calm   1.0mph /  1.6km/h 46% 0.00in /  0mm 598.0 W/m2
09:19 74.7 °F /  23.7 °C 52.0 °F /  11.1 °C 29.72in /  1006.3hPa WNW 0.9mph /  1.4km/h 3.0mph /  4.8km/h 45% 0.00in /  0mm 617.0 W/m2
09:25 75.0 °F /  23.9 °C 51.1 °F /  10.6 °C 29.72in /  1006.3hPa Calm   3.0mph /  4.8km/h 43% 0.00in /  0mm 635.0 W/m2
09:31 75.0 °F /  23.9 °C 52.2 °F /  11.2 °C 29.72in /  1006.3hPa Calm   3.0mph /  4.8km/h 45% 0.00in /  0mm 652.0 W/m2
09:37 75.0 °F /  23.9 °C 51.6 °F /  10.9 °C 29.72in /  1006.3hPa WSW 4.0mph /  6.4km/h 5.0mph /  8km/h 44% 0.00in /  0mm 677.0 W/m2
09:43 75.0 °F /  23.9 °C 51.6 °F /  10.9 °C 29.72in /  1006.3hPa West 2.0mph /  3.2km/h 2.0mph /  3.2km/h 44% 0.00in /  0mm 705.0 W/m2
09:49 75.4 °F /  24.1 °C 52.0 °F /  11.1 °C 29.72in /  1006.3hPa WSW 0.9mph /  1.4km/h 2.0mph /  3.2km/h 44% 0.00in /  0mm 715.0 W/m2
09:55 75.9 °F /  24.4 °C 51.8 °F /  11 °C 29.72in /  1006.3hPa NW 4.0mph /  6.4km/h 5.0mph /  8km/h 43% 0.00in /  0mm 740.0 W/m2
10:01 76.8 °F /  24.9 °C 52.0 °F /  11.1 °C 29.72in /  1006.3hPa West 0.9mph /  1.4km/h 3.0mph /  4.8km/h 42% 0.00in /  0mm 754.0 W/m2
10:07 77.4 °F /  25.2 °C 51.1 °F /  10.6 °C 29.72in /  1006.3hPa NNW 2.9mph /  4.7km/h 6.0mph /  9.7km/h 40% 0.00in /  0mm 777.0 W/m2
10:13 78.3 °F /  25.7 °C 52.0 °F /  11.1 °C 29.72in /  1006.3hPa NNW 6.0mph /  9.7km/h 6.0mph /  9.7km/h 40% 0.00in /  0mm 791.0 W/m2
10:19 79.0 °F /  26.1 °C 52.0 °F /  11.1 °C 29.72in /  1006.3hPa NNW 0.9mph /  1.4km/h 4.0mph /  6.4km/h 39% 0.00in /  0mm 814.0 W/m2
10:25 79.5 °F /  26.4 °C 50.9 °F /  10.5 °C 29.72in /  1006.3hPa Calm   4.0mph /  6.4km/h 37% 0.00in /  0mm 824.0 W/m2
10:31 79.9 °F /  26.6 °C 52.0 °F /  11.1 °C 29.72in /  1006.3hPa Calm   4.0mph /  6.4km/h 38% 0.00in /  0mm 847.0 W/m2
10:37 79.7 °F /  26.5 °C 51.1 °F /  10.6 °C 29.72in /  1006.3hPa North 4.0mph /  6.4km/h 6.0mph /  9.7km/h 37% 0.00in /  0mm 863.0 W/m2
10:43 79.9 °F /  26.6 °C 51.3 °F /  10.7 °C 29.72in /  1006.3hPa NW 4.0mph /  6.4km/h 7.0mph /  11.3km/h 37% 0.00in /  0mm 874.0 W/m2
10:49 79.9 °F /  26.6 °C 52.0 °F /  11.1 °C 29.72in /  1006.3hPa NW 4.0mph /  6.4km/h 6.0mph /  9.7km/h 38% 0.00in /  0mm 888.0 W/m2
11:01 80.8 °F /  27.1 °C 52.2 °F /  11.2 °C 29.72in /  1006.3hPa NW 2.0mph /  3.2km/h 3.0mph /  4.8km/h 37% 0.00in /  0mm 921.0 W/m2
11:07 81.3 °F /  27.4 °C 51.8 °F /  11 °C 29.72in /  1006.3hPa NE 2.9mph /  4.7km/h 6.0mph /  9.7km/h 36% 0.00in /  0mm 935.0 W/m2
11:13 81.9 °F /  27.7 °C 52.3 °F /  11.3 °C 29.71in /  1006hPa NNW 0.9mph /  1.4km/h 4.0mph /  6.4km/h 36% 0.00in /  0mm 944.0 W/m2
11:19 82.2 °F /  27.9 °C 52.5 °F /  11.4 °C 29.71in /  1006hPa West 2.0mph /  3.2km/h 5.0mph /  8km/h 36% 0.00in /  0mm 956.0 W/m2
11:25 82.8 °F /  28.2 °C 52.3 °F /  11.3 °C 29.71in /  1006hPa NNW 2.0mph /  3.2km/h 6.0mph /  9.7km/h 35% 0.00in /  0mm 962.0 W/m2
11:37 82.9 °F /  28.3 °C 53.2 °F /  11.8 °C 29.71in /  1006hPa SW 0.9mph /  1.4km/h 6.0mph /  9.7km/h 36% 0.00in /  0mm 986.0 W/m2
11:43 83.5 °F /  28.6 °C 54.5 °F /  12.5 °C 29.71in /  1006hPa West 2.0mph /  3.2km/h 6.0mph /  9.7km/h 37% 0.00in /  0mm 991.0 W/m2
11:49 84.0 °F /  28.9 °C 55.8 °F /  13.2 °C 29.70in /  1005.6hPa WNW 0.9mph /  1.4km/h 6.0mph /  9.7km/h 38% 0.00in /  0mm 1000.0 W/m2
11:54 84.4 °F /  29.1 °C 52.9 °F /  11.6 °C 29.70in /  1005.6hPa NNW 4.0mph /  6.4km/h 6.0mph /  9.7km/h 34% 0.00in /  0mm 1011.0 W/m2
11:59 84.6 °F /  29.2 °C 54.0 °F /  12.2 °C 29.70in /  1005.6hPa NW 0.9mph /  1.4km/h 6.0mph /  9.7km/h 35% 0.00in /  0mm 1014.0 W/m2
12:05 84.9 °F /  29.4 °C 54.1 °F /  12.3 °C 29.70in /  1005.6hPa North 6.9mph /  11.1km/h 9.0mph /  14.5km/h 35% 0.00in /  0mm 1023.0 W/m2
12:11 84.9 °F /  29.4 °C 52.5 °F /  11.4 °C 29.70in /  1005.6hPa North 4.9mph /  7.9km/h 9.0mph /  14.5km/h 33% 0.00in /  0mm 1034.0 W/m2
12:17 84.9 °F /  29.4 °C 52.5 °F /  11.4 °C 29.70in /  1005.6hPa NNW 2.9mph /  4.7km/h 11.0mph /  17.7km/h 33% 0.00in /  0mm 1037.0 W/m2
12:23 84.7 °F /  29.3 °C 52.5 °F /  11.4 °C 29.70in /  1005.6hPa North 4.0mph /  6.4km/h 9.0mph /  14.5km/h 33% 0.00in /  0mm 1034.0 W/m2
12:29 84.7 °F /  29.3 °C 53.2 °F /  11.8 °C 29.69in /  1005.3hPa NNW 8.1mph /  13km/h 8.1mph /  13km/h 34% 0.00in /  0mm 1046.0 W/m2
12:35 85.3 °F /  29.6 °C 52.9 °F /  11.6 °C 29.69in /  1005.3hPa North 6.9mph /  11.1km/h 7.0mph /  11.3km/h 33% 0.00in /  0mm 1044.0 W/m2
12:41 84.9 °F /  29.4 °C 52.5 °F /  11.4 °C 29.69in /  1005.3hPa Calm   8.0mph /  12.9km/h 33% 0.00in /  0mm 1053.0 W/m2
12:47 85.3 °F /  29.6 °C 52.9 °F /  11.6 °C 29.69in /  1005.3hPa West 2.0mph /  3.2km/h 7.0mph /  11.3km/h 33% 0.00in /  0mm 1053.0 W/m2
12:53 85.6 °F /  29.8 °C 51.6 °F /  10.9 °C 29.69in /  1005.3hPa NNE 2.9mph /  4.7km/h 7.0mph /  11.3km/h 31% 0.00in /  0mm 1058.0 W/m2
12:59 85.8 °F /  29.9 °C 51.6 °F /  10.9 °C 29.69in /  1005.3hPa NNW 4.0mph /  6.4km/h 6.0mph /  9.7km/h 31% 0.00in /  0mm 1046.0 W/m2
13:06 85.6 °F /  29.8 °C 51.6 °F /  10.9 °C 29.68in /  1005hPa WSW 2.9mph /  4.7km/h 9.0mph /  14.5km/h 31% 0.00in /  0mm 1049.0 W/m2
13:12 85.8 °F /  29.9 °C 50.7 °F /  10.4 °C 29.68in /  1005hPa WNW 4.0mph /  6.4km/h 9.0mph /  14.5km/h 30% 0.00in /  0mm 1044.0 W/m2
13:18 86.4 °F /  30.2 °C 51.3 °F /  10.7 °C 29.68in /  1005hPa NE 4.9mph /  7.9km/h 8.0mph /  12.9km/h 30% 0.00in /  0mm 1055.0 W/m2
13:24 86.7 °F /  30.4 °C 51.6 °F /  10.9 °C 29.68in /  1005hPa WNW 2.0mph /  3.2km/h 10.0mph /  16.1km/h 30% 0.00in /  0mm 1048.0 W/m2
13:30 86.5 °F /  30.3 °C 51.4 °F /  10.8 °C 29.68in /  1005hPa Calm   6.0mph /  9.7km/h 30% 0.00in /  0mm 1053.0 W/m2
13:36 86.5 °F /  30.3 °C 50.5 °F /  10.3 °C 29.68in /  1005hPa NW 6.9mph /  11.1km/h 13.0mph /  20.9km/h 29% 0.00in /  0mm 1048.0 W/m2
13:42 86.9 °F /  30.5 °C 49.8 °F /  9.9 °C 29.68in /  1005hPa WNW 2.9mph /  4.7km/h 13.0mph /  20.9km/h 28% 0.00in /  0mm 1044.0 W/m2
13:48 86.7 °F /  30.4 °C 50.7 °F /  10.4 °C 29.67in /  1004.6hPa NNE 2.9mph /  4.7km/h 4.0mph /  6.4km/h 29% 0.00in /  0mm 1039.0 W/m2
13:54 87.1 °F /  30.6 °C 51.8 °F /  11 °C 29.67in /  1004.6hPa NW 6.0mph /  9.7km/h 7.0mph /  11.3km/h 30% 0.00in /  0mm 1035.0 W/m2
14:00 87.3 °F /  30.7 °C 49.3 °F /  9.6 °C 29.67in /  1004.6hPa WSW 0.9mph /  1.4km/h 5.0mph /  8km/h 27% 0.00in /  0mm 1028.0 W/m2
14:06 87.3 °F /  30.7 °C 49.3 °F /  9.6 °C 29.67in /  1004.6hPa North 2.9mph /  4.7km/h 5.0mph /  8km/h 27% 0.00in /  0mm 1023.0 W/m2
14:12 87.4 °F /  30.8 °C 49.3 °F /  9.6 °C 29.67in /  1004.6hPa NNE 2.9mph /  4.7km/h 8.0mph /  12.9km/h 27% 0.00in /  0mm 1014.0 W/m2
14:18 87.6 °F /  30.9 °C 50.5 °F /  10.3 °C 29.67in /  1004.6hPa NW 0.9mph /  1.4km/h 3.0mph /  4.8km/h 28% 0.00in /  0mm 1002.0 W/m2
14:24 87.4 °F /  30.8 °C 50.4 °F /  10.2 °C 29.67in /  1004.6hPa NE 2.9mph /  4.7km/h 7.0mph /  11.3km/h 28% 0.00in /  0mm 1005.0 W/m2
14:30 87.6 °F /  30.9 °C 49.5 °F /  9.7 °C 29.66in /  1004.3hPa NW 2.9mph /  4.7km/h 5.0mph /  8km/h 27% 0.00in /  0mm 993.0 W/m2
14:36 88.2 °F /  31.2 °C 50.0 °F /  10 °C 29.66in /  1004.3hPa NE 8.1mph /  13km/h 12.0mph /  19.3km/h 27% 0.00in /  0mm 1016.0 W/m2
14:42 87.8 °F /  31 °C 50.7 °F /  10.4 °C 29.66in /  1004.3hPa NW 4.9mph /  7.9km/h 6.0mph /  9.7km/h 28% 0.00in /  0mm 1007.0 W/m2
14:48 88.5 °F /  31.4 °C 50.4 °F /  10.2 °C 29.66in /  1004.3hPa NNE 6.9mph /  11.1km/h 11.0mph /  17.7km/h 27% 0.00in /  0mm 984.0 W/m2
14:54 88.9 °F /  31.6 °C 50.5 °F /  10.3 °C 29.65in /  1003.9hPa West 2.0mph /  3.2km/h 4.0mph /  6.4km/h 27% 0.00in /  0mm 974.0 W/m2
15:00 89.1 °F /  31.7 °C 50.7 °F /  10.4 °C 29.65in /  1003.9hPa North 4.9mph /  7.9km/h 7.0mph /  11.3km/h 27% 0.00in /  0mm 976.0 W/m2
15:06 89.4 °F /  31.9 °C 50.0 °F /  10 °C 29.65in /  1003.9hPa NNW 2.9mph /  4.7km/h 6.0mph /  9.7km/h 26% 0.00in /  0mm 956.0 W/m2
15:12 89.8 °F /  32.1 °C 50.4 °F /  10.2 °C 29.65in /  1003.9hPa Calm   4.0mph /  6.4km/h 26% 0.00in /  0mm 942.0 W/m2
15:18 89.8 °F /  32.1 °C 51.3 °F /  10.7 °C 29.64in /  1003.6hPa NW 2.9mph /  4.7km/h 12.0mph /  19.3km/h 27% 0.00in /  0mm 976.0 W/m2
15:24 89.2 °F /  31.8 °C 51.8 °F /  11 °C 29.64in /  1003.6hPa West 2.9mph /  4.7km/h 7.0mph /  11.3km/h 28% 0.00in /  0mm 330.0 W/m2
15:30 88.5 °F /  31.4 °C 52.2 °F /  11.2 °C 29.64in /  1003.6hPa WSW 4.0mph /  6.4km/h 10.0mph /  16.1km/h 29% 0.00in /  0mm 896.0 W/m2
15:37 88.2 °F /  31.2 °C 52.0 °F /  11.1 °C 29.64in /  1003.6hPa Calm   3.0mph /  4.8km/h 29% 0.00in /  0mm 113.0 W/m2
15:43 87.1 °F /  30.6 °C 50.9 °F /  10.5 °C 29.63in /  1003.3hPa NNW 0.9mph /  1.4km/h 6.0mph /  9.7km/h 29% 0.00in /  0mm 939.0 W/m2
15:49 87.3 °F /  30.7 °C 51.1 °F /  10.6 °C 29.63in /  1003.3hPa NNE 0.9mph /  1.4km/h 6.0mph /  9.7km/h 29% 0.00in /  0mm 912.0 W/m2
15:55 88.0 °F /  31.1 °C 50.7 °F /  10.4 °C 29.63in /  1003.3hPa NW 12.1mph /  19.5km/h 12.1mph /  19.5km/h 28% 0.00in /  0mm 828.0 W/m2
16:01 87.6 °F /  30.9 °C 50.5 °F /  10.3 °C 29.63in /  1003.3hPa NW 0.9mph /  1.4km/h 6.0mph /  9.7km/h 28% 0.00in /  0mm 817.0 W/m2
16:07 88.3 °F /  31.3 °C 50.2 °F /  10.1 °C 29.63in /  1003.3hPa NW 2.0mph /  3.2km/h 6.0mph /  9.7km/h 27% 0.00in /  0mm 816.0 W/m2
16:19 87.6 °F /  30.9 °C 49.5 °F /  9.7 °C 29.62in /  1002.9hPa NNW 4.9mph /  7.9km/h 7.0mph /  11.3km/h 27% 0.00in /  0mm 800.0 W/m2
16:25 87.1 °F /  30.6 °C 49.1 °F /  9.5 °C 29.63in /  1003.3hPa West 0.9mph /  1.4km/h 10.0mph /  16.1km/h 27% 0.00in /  0mm 304.0 W/m2
16:31 86.2 °F /  30.1 °C 49.3 °F /  9.6 °C 29.63in /  1003.3hPa Calm   2.0mph /  3.2km/h 28% 0.00in /  0mm 195.0 W/m2
16:43 84.9 °F /  29.4 °C 49.1 °F /  9.5 °C 29.63in /  1003.3hPa NW 6.0mph /  9.7km/h 7.0mph /  11.3km/h 29% 0.00in /  0mm 311.0 W/m2
16:50 85.6 °F /  29.8 °C 48.7 °F /  9.3 °C 29.63in /  1003.3hPa WNW 2.0mph /  3.2km/h 5.0mph /  8km/h 28% 0.00in /  0mm 399.0 W/m2
16:56 86.4 °F /  30.2 °C 48.4 °F /  9.1 °C 29.63in /  1003.3hPa WSW 2.9mph /  4.7km/h 9.0mph /  14.5km/h 27% 0.00in /  0mm 322.0 W/m2
17:02 86.4 °F /  30.2 °C 48.4 °F /  9.1 °C 29.63in /  1003.3hPa Calm   7.0mph /  11.3km/h 27% 0.00in /  0mm 728.0 W/m2
17:08 86.5 °F /  30.3 °C 47.7 °F /  8.7 °C 29.64in /  1003.6hPa WNW 0.9mph /  1.4km/h 9.0mph /  14.5km/h 26% 0.00in /  0mm 197.0 W/m2
17:20 83.5 °F /  28.6 °C 55.9 °F /  13.3 °C 29.65in /  1003.9hPa SSE 11.0mph /  17.7km/h 13.0mph /  20.9km/h 39% 0.00in /  0mm 93.0 W/m2
17:26 80.8 °F /  27.1 °C 56.1 °F /  13.4 °C 29.65in /  1003.9hPa SE 6.9mph /  11.1km/h 7.0mph /  11.3km/h 43% 0.00in /  0mm 118.0 W/m2
17:32 78.6 °F /  25.9 °C 56.1 °F /  13.4 °C 29.65in /  1003.9hPa SSE 4.9mph /  7.9km/h 15.0mph /  24.1km/h 46% 0.00in /  0mm 139.0 W/m2
17:38 77.2 °F /  25.1 °C 56.5 °F /  13.6 °C 29.65in /  1003.9hPa Calm   8.0mph /  12.9km/h 49% 0.00in /  0mm 156.0 W/m2
17:44 76.5 °F /  24.7 °C 56.5 °F /  13.6 °C 29.65in /  1003.9hPa South 2.0mph /  3.2km/h 7.0mph /  11.3km/h 50% 0.00in /  0mm 146.0 W/m2
17:50 76.8 °F /  24.9 °C 55.6 °F /  13.1 °C 29.65in /  1003.9hPa SSE 6.9mph /  11.1km/h 8.0mph /  12.9km/h 48% 0.00in /  0mm 468.0 W/m2
17:56 78.1 °F /  25.6 °C 56.8 °F /  13.8 °C 29.65in /  1003.9hPa ESE 2.0mph /  3.2km/h 9.0mph /  14.5km/h 48% 0.00in /  0mm 381.0 W/m2
18:02 79.0 °F /  26.1 °C 56.5 °F /  13.6 °C 29.66in /  1004.3hPa SSE 2.9mph /  4.7km/h 6.0mph /  9.7km/h 46% 0.00in /  0mm 352.0 W/m2
18:08 79.9 °F /  26.6 °C 55.9 °F /  13.3 °C 29.66in /  1004.3hPa SSE 8.9mph /  14.3km/h 10.0mph /  16.1km/h 44% 0.00in /  0mm 315.0 W/m2
18:14 80.4 °F /  26.9 °C 56.5 °F /  13.6 °C 29.66in /  1004.3hPa SSW 0.9mph /  1.4km/h 7.0mph /  11.3km/h 44% 0.00in /  0mm 287.0 W/m2
18:21 80.8 °F /  27.1 °C 56.1 °F /  13.4 °C 29.67in /  1004.6hPa SW 4.0mph /  6.4km/h 5.0mph /  8km/h 43% 0.00in /  0mm 257.0 W/m2
18:27 81.0 °F /  27.2 °C 55.8 °F /  13.2 °C 29.67in /  1004.6hPa SW 2.0mph /  3.2km/h 6.0mph /  9.7km/h 42% 0.00in /  0mm 229.0 W/m2
18:33 80.8 °F /  27.1 °C 56.1 °F /  13.4 °C 29.67in /  1004.6hPa SSE 0.9mph /  1.4km/h 7.0mph /  11.3km/h 43% 0.00in /  0mm 204.0 W/m2
18:39 80.6 °F /  27 °C 55.4 °F /  13 °C 29.67in /  1004.6hPa Calm   3.0mph /  4.8km/h 42% 0.00in /  0mm 178.0 W/m2
18:45 80.4 °F /  26.9 °C 55.2 °F /  12.9 °C 29.67in /  1004.6hPa Calm   6.0mph /  9.7km/h 42% 0.00in /  0mm 132.0 W/m2
18:51 80.1 °F /  26.7 °C 55.6 °F /  13.1 °C 29.68in /  1005hPa Calm   4.0mph /  6.4km/h 43% 0.00in /  0mm 104.0 W/m2
18:57 79.5 °F /  26.4 °C 55.8 °F /  13.2 °C 29.68in /  1005hPa SW 0.9mph /  1.4km/h 5.0mph /  8km/h 44% 0.00in /  0mm 47.0 W/m2
19:03 79.2 °F /  26.2 °C 55.9 °F /  13.3 °C 29.68in /  1005hPa Calm   1.0mph /  1.6km/h 45% 0.00in /  0mm 30.0 W/m2
19:09 79.0 °F /  26.1 °C 55.8 °F /  13.2 °C 29.69in /  1005.3hPa SSE 2.9mph /  4.7km/h 5.0mph /  8km/h 45% 0.00in /  0mm 25.0 W/m2
19:16 78.4 °F /  25.8 °C 53.4 °F /  11.9 °C 29.69in /  1005.3hPa WSW 4.9mph /  7.9km/h 7.0mph /  11.3km/h 42% 0.00in /  0mm 19.0 W/m2
19:22 77.7 °F /  25.4 °C 54.1 °F /  12.3 °C 29.70in /  1005.6hPa SW 2.0mph /  3.2km/h 6.0mph /  9.7km/h 44% 0.00in /  0mm 14.0 W/m2
19:28 77.2 °F /  25.1 °C 43.3 °F /  6.3 °C 29.70in /  1005.6hPa WSW 2.9mph /  4.7km/h 9.0mph /  14.5km/h 30% 0.00in /  0mm 11.0 W/m2
19:34 77.0 °F /  25 °C 55.8 °F /  13.2 °C 29.70in /  1005.6hPa SW 0.9mph /  1.4km/h 6.0mph /  9.7km/h 48% 0.00in /  0mm 5.0 W/m2
19:40 76.3 °F /  24.6 °C 56.8 °F /  13.8 °C 29.71in /  1006hPa SSW 2.0mph /  3.2km/h 5.0mph /  8km/h 51% 0.00in /  0mm 0.0 W/m2
19:46 75.7 °F /  24.3 °C 55.2 °F /  12.9 °C 29.71in /  1006hPa WSW 0.9mph /  1.4km/h 7.0mph /  11.3km/h 49% 0.00in /  0mm 0.0 W/m2
19:53 75.0 °F /  23.9 °C 49.6 °F /  9.8 °C 29.71in /  1006hPa WSW 4.0mph /  6.4km/h 6.0mph /  9.7km/h 41% 0.00in /  0mm 0.0 W/m2
19:59 74.8 °F /  23.8 °C 43.0 °F /  6.1 °C 29.72in /  1006.3hPa WSW 8.1mph /  13km/h 8.1mph /  13km/h 32% 0.00in /  0mm 0.0 W/m2
20:05 74.7 °F /  23.7 °C 41.2 °F /  5.1 °C 29.72in /  1006.3hPa WSW 0.9mph /  1.4km/h 3.0mph /  4.8km/h 30% 0.00in /  0mm 0.0 W/m2
20:11 74.7 °F /  23.7 °C 41.2 °F /  5.1 °C 29.72in /  1006.3hPa South 4.0mph /  6.4km/h 5.0mph /  8km/h 30% 0.00in /  0mm 0.0 W/m2
20:17 74.5 °F /  23.6 °C 40.1 °F /  4.5 °C 29.73in /  1006.7hPa SSW 0.9mph /  1.4km/h 7.0mph /  11.3km/h 29% 0.00in /  0mm 0.0 W/m2
20:23 74.1 °F /  23.4 °C 39.9 °F /  4.4 °C 29.73in /  1006.7hPa SW 2.0mph /  3.2km/h 6.0mph /  9.7km/h 29% 0.00in /  0mm 0.0 W/m2
20:29 73.8 °F /  23.2 °C 38.7 °F /  3.7 °C 29.73in /  1006.7hPa SSW 0.9mph /  1.4km/h 7.0mph /  11.3km/h 28% 0.00in /  0mm 0.0 W/m2
20:35 73.4 °F /  23 °C 39.2 °F /  4 °C 29.74in /  1007hPa Calm   5.0mph /  8km/h 29% 0.00in /  0mm 0.0 W/m2
20:41 73.0 °F /  22.8 °C 39.7 °F /  4.3 °C 29.75in /  1007.3hPa SSW 2.0mph /  3.2km/h 5.0mph /  8km/h 30% 0.00in /  0mm 0.0 W/m2
20:47 72.7 °F /  22.6 °C 38.7 °F /  3.7 °C 29.75in /  1007.3hPa WSW 2.0mph /  3.2km/h 6.0mph /  9.7km/h 29% 0.00in /  0mm 0.0 W/m2
20:53 72.3 °F /  22.4 °C 38.3 °F /  3.5 °C 29.75in /  1007.3hPa WSW 0.9mph /  1.4km/h 5.0mph /  8km/h 29% 0.00in /  0mm 0.0 W/m2
20:59 72.1 °F /  22.3 °C 38.1 °F /  3.4 °C 29.76in /  1007.7hPa SSW 0.9mph /  1.4km/h 4.0mph /  6.4km/h 29% 0.00in /  0mm 0.0 W/m2
21:05 71.8 °F /  22.1 °C 38.7 °F /  3.7 °C 29.76in /  1007.7hPa West 0.9mph /  1.4km/h 5.0mph /  8km/h 30% 0.00in /  0mm 0.0 W/m2
21:11 71.4 °F /  21.9 °C 37.6 °F /  3.1 °C 29.77in /  1008hPa SSW 4.9mph /  7.9km/h 9.0mph /  14.5km/h 29% 0.00in /  0mm 0.0 W/m2
21:17 70.9 °F /  21.6 °C 37.9 °F /  3.3 °C 29.77in /  1008hPa West 2.0mph /  3.2km/h 7.0mph /  11.3km/h 30% 0.00in /  0mm 0.0 W/m2
21:23 70.5 °F /  21.4 °C 37.6 °F /  3.1 °C 29.78in /  1008.4hPa WSW 0.9mph /  1.4km/h 5.0mph /  8km/h 30% 0.00in /  0mm 0.0 W/m2
21:29 70.2 °F /  21.2 °C 37.2 °F /  2.9 °C 29.78in /  1008.4hPa West 4.9mph /  7.9km/h 6.0mph /  9.7km/h 30% 0.00in /  0mm 0.0 W/m2
21:36 69.6 °F /  20.9 °C 37.6 °F /  3.1 °C 29.78in /  1008.4hPa West 4.0mph /  6.4km/h 5.0mph /  8km/h 31% 0.00in /  0mm 0.0 W/m2
21:42 69.4 °F /  20.8 °C 38.3 °F /  3.5 °C 29.78in /  1008.4hPa WSW 2.0mph /  3.2km/h 4.0mph /  6.4km/h 32% 0.00in /  0mm 0.0 W/m2
21:48 69.3 °F /  20.7 °C 38.1 °F /  3.4 °C 29.78in /  1008.4hPa WSW 2.9mph /  4.7km/h 7.0mph /  11.3km/h 32% 0.00in /  0mm 0.0 W/m2
21:54 68.9 °F /  20.5 °C 37.8 °F /  3.2 °C 29.78in /  1008.4hPa SW 2.0mph /  3.2km/h 5.0mph /  8km/h 32% 0.00in /  0mm 0.0 W/m2
22:00 68.7 °F /  20.4 °C 38.5 °F /  3.6 °C 29.79in /  1008.7hPa Calm   1.0mph /  1.6km/h 33% 0.00in /  0mm 0.0 W/m2
22:06 68.5 °F /  20.3 °C 38.3 °F /  3.5 °C 29.79in /  1008.7hPa Calm   2.0mph /  3.2km/h 33% 0.00in /  0mm 0.0 W/m2
22:12 68.4 °F /  20.2 °C 38.8 °F /  3.8 °C 29.79in /  1008.7hPa Calm   3.0mph /  4.8km/h 34% 0.00in /  0mm 0.0 W/m2
22:18 68.0 °F /  20 °C 39.4 °F /  4.1 °C 29.80in /  1009hPa Calm     35% 0.00in /  0mm 0.0 W/m2
22:25 67.8 °F /  19.9 °C 39.2 °F /  4 °C 29.80in /  1009hPa Calm   2.0mph /  3.2km/h 35% 0.00in /  0mm 0.0 W/m2
22:31 67.5 °F /  19.7 °C 39.6 °F /  4.2 °C 29.80in /  1009hPa Calm     36% 0.00in /  0mm 0.0 W/m2
22:37 67.3 °F /  19.6 °C 39.4 °F /  4.1 °C 29.80in /  1009hPa Calm     36% 0.00in /  0mm 0.0 W/m2
22:43 67.1 °F /  19.5 °C 39.9 °F /  4.4 °C 29.80in /  1009hPa Calm     37% 0.00in /  0mm 0.0 W/m2
22:49 66.7 °F /  19.3 °C 39.6 °F /  4.2 °C 29.80in /  1009hPa Calm   2.0mph /  3.2km/h 37% 0.00in /  0mm 0.0 W/m2
22:55 66.6 °F /  19.2 °C 39.6 °F /  4.2 °C 29.80in /  1009hPa Calm   1.0mph /  1.6km/h 37% 0.00in /  0mm 0.0 W/m2
23:01 66.4 °F /  19.1 °C 40.6 °F /  4.8 °C 29.80in /  1009hPa Calm   2.0mph /  3.2km/h 39% 0.00in /  0mm 0.0 W/m2
23:08 66.2 °F /  19 °C 40.5 °F /  4.7 °C 29.80in /  1009hPa Calm   3.0mph /  4.8km/h 39% 0.00in /  0mm 0.0 W/m2
23:14 66.0 °F /  18.9 °C 40.3 °F /  4.6 °C 29.80in /  1009hPa Calm   1.0mph /  1.6km/h 39% 0.00in /  0mm 0.0 W/m2
23:20 65.8 °F /  18.8 °C 40.8 °F /  4.9 °C 29.80in /  1009hPa Calm     40% 0.00in /  0mm 0.0 W/m2
23:26 65.7 °F /  18.7 °C 40.6 °F /  4.8 °C 29.81in /  1009.4hPa North 0.9mph /  1.4km/h 2.0mph /  3.2km/h 40% 0.00in /  0mm 0.0 W/m2
23:32 65.5 °F /  18.6 °C 40.5 °F /  4.7 °C 29.81in /  1009.4hPa Calm   1.0mph /  1.6km/h 40% 0.00in /  0mm 0.0 W/m2
23:38 65.5 °F /  18.6 °C 40.5 °F /  4.7 °C 29.80in /  1009hPa Calm     40% 0.00in /  0mm 0.0 W/m2
23:44 65.1 °F /  18.4 °C 40.8 °F /  4.9 °C 29.80in /  1009hPa Calm     41% 0.00in /  0mm 0.0 W/m2
23:50 65.1 °F /  18.4 °C 40.8 °F /  4.9 °C 29.80in /  1009hPa Calm     41% 0.00in /  0mm 0.0 W/m2
23:56 64.9 °F /  18.3 °C 41.4 °F /  5.2 °C 29.80in /  1009hPa Calm     42% 0.00in /  0mm 0.0 W/m2
Olympia, Windhoek, Namibia
Compliments of Weather Underground - 3 mb